Seabourn Quest — C6YZ5 — position and weather

sailwx.info

Track history (hours):
 
Tides and Currents Weather Stations Pressure Air Temp Water Temp Dewpoint Dewpoint Depression Visibility Wind Speed Wind Dir Waves Ship Positions

Seabourn Quest

Last reported at 2019-Jul-19 02:24 UTC. Time now 2019-Jul-19 18:41 UTC.
Position N 51°33' W 005°51'.

Length 198 m; draft 6.7 m.

Type: Ship. MMSI: 311038900.

Date/timePositionNaut miles runAvg speedWind from/ knotsBaromVisibWave heightAir tempDewpointWater temp
2019-Jul-19 02:24N 51°33' W 005°51'614.6
2019-Jul-19 02:00N 51°28' W 005°51'2813.8
2019-Jul-19 00:00N 51°00' W 005°48'77 3.6 190 / 171008.110.8 18.010.6
2019-Jul-18 02:27N 50°02' W 004°30'3 7.0
2019-Jul-18 01:59N 50°01' W 004°25'5 7.3
2019-Jul-18 01:18N 50°01' W 004°17'3 7.3
2019-Jul-18 00:55N 50°01' W 004°13'6 8.0
2019-Jul-18 00:08N 50°01' W 004°03'1 8.3
2019-Jul-18 00:00N 50°01' W 004°02'5423.4
2019-Jul-18 00:00N 50°00' W 003°54'1 2.6 190 / 251012.210.8 16.0 8.1
2019-Jul-17 23:30N 50°01' W 003°55'4 7.8
2019-Jul-17 23:00N 50°01' W 003°49'4 7.4
2019-Jul-17 22:30N 50°01' W 003°43'4 7.2
2019-Jul-17 22:01N 50°01' W 003°38'3 6.8
2019-Jul-17 21:30N 50°01' W 003°33'3 6.5
2019-Jul-17 21:01N 50°01' W 003°28'3 5.9
2019-Jul-17 20:30N 50°01' W 003°23'3 5.7
2019-Jul-17 20:01N 50°01' W 003°19'3 5.6
2019-Jul-17 19:31N 50°01' W 003°14'3 5.4
2019-Jul-17 19:00N 50°01' W 003°10'3 5.7
2019-Jul-17 18:31N 50°01' W 003°06'3 6.0
2019-Jul-17 18:01N 50°01' W 003°01'3 6.2
2019-Jul-17 17:31N 50°01' W 002°56'3 6.7
2019-Jul-17 17:01N 50°02' W 002°51'4 7.4
2019-Jul-17 16:30N 50°03' W 002°45'4 8.0
2019-Jul-17 16:00N 50°04' W 002°39'4 8.7
2019-Jul-17 15:31N 50°05' W 002°33'5 9.4
2019-Jul-17 14:59N 50°06' W 002°26'710.6
2019-Jul-17 14:18N 50°08' W 002°15'311.0
2019-Jul-17 14:00N 50°09' W 002°10'611.1
2019-Jul-17 13:30N 50°10' W 002°01'510.6
2019-Jul-17 13:00N 50°12' W 001°53'510.1
2019-Jul-17 12:30N 50°13' W 001°46'5 9.3
2019-Jul-17 12:00N 50°14' W 001°39'4 8.5
2019-Jul-17 11:30N 50°16' W 001°32'4 7.7
2019-Jul-17 11:00N 50°17' W 001°27'4 6.9
2019-Jul-17 10:29N 50°17' W 001°21'3 6.2
2019-Jul-17 09:59N 50°18' W 001°16'3 5.5
2019-Jul-17 09:30N 50°19' W 001°12'2 5.0
2019-Jul-17 09:00N 50°20' W 001°09'2 4.6
2019-Jul-17 08:30N 50°20' W 001°05'2 4.6
2019-Jul-17 08:00N 50°21' W 001°02'2 4.8
2019-Jul-17 07:30N 50°21' W 000°58'3 5.8
2019-Jul-17 06:59N 50°22' W 000°54'3 6.7
2019-Jul-17 06:30N 50°23' W 000°49'4 7.1
2019-Jul-17 06:00N 50°24' W 000°43'4 7.0
2019-Jul-17 05:28N 50°25' W 000°38'3 7.0
2019-Jul-17 05:00N 50°26' W 000°33'4 7.1
2019-Jul-17 04:30N 50°27' W 000°27'3 7.0
2019-Jul-17 04:01N 50°28' W 000°22'4 7.6
2019-Jul-17 03:30N 50°29' W 000°16'5 8.1
2019-Jul-17 02:57N 50°30' W 000°09'5 7.8
2019-Jul-17 02:19N 50°31' W 000°02'2 7.6
2019-Jul-17 01:59N 50°32' E 000°02'11 7.3
2019-Jul-17 00:31N 50°35' E 000°18'0 7.2
2019-Jul-17 00:30N 50°35' E 000°18'1 1.7
2019-Jul-17 00:00N 50°36' E 000°18'445.2 350 / 41016.210.8 16.0 2.8
2019-Jul-16 23:54N 50°36' E 000°25'3 7.4
2019-Jul-16 23:29N 50°37' E 000°29'4 7.2
2019-Jul-16 22:59N 50°38' E 000°35'3 6.9
2019-Jul-16 22:31N 50°40' E 000°39'4 7.1
2019-Jul-16 22:00N 50°42' E 000°44'3 6.8
2019-Jul-16 21:30N 50°44' E 000°48'4 7.1
2019-Jul-16 21:00N 50°46' E 000°53'4 7.1
2019-Jul-16 20:30N 50°48' E 000°57'5 7.1
2019-Jul-16 19:49N 50°51' E 001°03'2 7.2
2019-Jul-16 19:30N 50°53' E 001°06'4 7.3
2019-Jul-16 19:00N 50°55' E 001°10'5 9.0
2019-Jul-16 18:30N 50°58' E 001°15'6 9.8
2019-Jul-16 17:55N 51°03' E 001°21'4 9.2
2019-Jul-16 17:29N 51°07' E 001°23'2 3.7
2019-Jul-16 16:59N 51°08' E 001°24'3 6.2
2019-Jul-16 16:28N 51°07' E 001°19'0 0.0
2019-Jul-16 04:13N 51°07' E 001°19'0 1.0
2019-Jul-16 04:00N 51°07' E 001°20'4 7.8
2019-Jul-16 03:30N 51°07' E 001°26'611.5
2019-Jul-16 03:00N 51°04' E 001°34'510.5
2019-Jul-16 02:30N 50°59' E 001°32'712.1
2019-Jul-16 01:55N 50°53' E 001°25'812.7
2019-Jul-16 01:16N 50°46' E 001°21'312.8
2019-Jul-16 01:00N 50°42' E 001°19'612.8
2019-Jul-16 00:30N 50°38' E 001°12'712.9
2019-Jul-15 23:59N 50°34' E 001°04'713.1
2019-Jul-15 23:28N 50°30' E 000°55'913.5
2019-Jul-15 22:48N 50°28' E 000°42'5512.2
2019-Jul-15 18:18N 50°34' W 000°44'413.6
2019-Jul-15 18:00N 50°36' W 000°49'713.9
2019-Jul-15 17:31N 50°40' W 000°58'4 9.0
2019-Jul-15 17:01N 50°44' W 001°02'714.1
2019-Jul-15 16:30N 50°46' W 001°13'2 4.4
2019-Jul-15 15:59N 50°47' W 001°16'0 0.3
2019-Jul-15 15:47N 50°47' W 001°16'0 0.4
2019-Jul-15 15:35N 50°47' W 001°16'0 0.6
2019-Jul-15 15:30N 50°47' W 001°16'010.6
2019-Jul-15 15:30N 50°47' W 001°16'032.5
2019-Jul-15 15:30N 50°47' W 001°16'1 2.4
2019-Jul-15 15:00N 50°46' W 001°18'130.2
2019-Jul-15 14:58N 50°47' W 001°16'1 7.0
2019-Jul-15 14:46N 50°46' W 001°18'1 4.9
2019-Jul-15 14:30N 50°47' W 001°16'1128.5
2019-Jul-15 14:30N 50°47' W 001°17'122.8
2019-Jul-15 14:28N 50°47' W 001°16'0 0.0
2019-Jul-15 13:59N 50°47' W 001°16'168.2
2019-Jul-15 13:58N 50°46' W 001°18'0 1.0
2019-Jul-15 13:51N 50°46' W 001°18'1 3.2
2019-Jul-15 13:30N 50°47' W 001°16'052.0
2019-Jul-15 13:30N 50°47' W 001°16'1 8.0
2019-Jul-15 13:20N 50°46' W 001°18'1 3.9
2019-Jul-15 12:59N 50°47' W 001°16'1338.4
2019-Jul-15 12:59N 50°46' W 001°18'1110.5
2019-Jul-15 12:58N 50°47' W 001°16'0 0.1
2019-Jul-15 12:29N 50°47' W 001°16'121.0
2019-Jul-15 12:25N 50°46' W 001°18'0 1.2
2019-Jul-15 12:02N 50°46' W 001°18'134.2
2019-Jul-15 12:00N 50°47' W 001°16'1195.0
2019-Jul-15 12:00N 50°47' W 001°17'136.5
2019-Jul-15 11:59N 50°47' W 001°16'0 0.0
2019-Jul-15 11:29N 50°47' W 001°16'126.5
2019-Jul-15 11:26N 50°46' W 001°18'1 2.4
2019-Jul-15 10:59N 50°47' W 001°16'0 0.0
2019-Jul-15 10:29N 50°47' W 001°16'0 0.9
2019-Jul-15 10:21N 50°47' W 001°16'0 2.2
2019-Jul-15 10:21N 50°47' W 001°16'0 1.1
2019-Jul-15 10:04N 50°47' W 001°17'0 5.2
2019-Jul-15 10:00N 50°46' W 001°17'120.8
2019-Jul-15 09:58N 50°47' W 001°16'1 2.9
2019-Jul-15 09:30N 50°46' W 001°18'139.3
2019-Jul-15 09:28N 50°47' W 001°16'0 0.6
2019-Jul-15 09:00N 50°47' W 001°16'642861.0
2019-Jul-15 08:59N 49°56' W 002°18'64132.1
2019-Jul-15 08:30N 50°47' W 001°17'116.2
2019-Jul-15 08:28N 50°47' W 001°16'1 5.8
2019-Jul-15 08:15N 50°46' W 001°18'012.8
2019-Jul-15 08:12N 50°47' W 001°17'1 3.7
2019-Jul-15 07:59N 50°47' W 001°16'0 4.5
2019-Jul-15 07:58N 50°47' W 001°16'217.9
2019-Jul-15 07:53N 50°46' W 001°18'2 3.9
2019-Jul-15 07:30N 50°47' W 001°16'0 2.4
2019-Jul-15 07:20N 50°47' W 001°16'0 1.0
2019-Jul-15 06:59N 50°47' W 001°16'120.6
2019-Jul-15 06:55N 50°46' W 001°18'1 2.8
2019-Jul-15 06:31N 50°47' W 001°16'4 7.3
2019-Jul-15 06:01N 50°46' W 001°10'713.3
2019-Jul-15 05:30N 50°43' W 001°01'4 8.0
2019-Jul-15 05:01N 50°39' W 000°58'4 8.1
2019-Jul-15 04:31N 50°35' W 000°59'5 9.1
2019-Jul-15 04:00N 50°32' W 001°03'49 9.6
2019-Jul-14 22:51N 50°00' W 002°03'5 9.8
2019-Jul-14 22:22N 49°58' W 002°09'4 9.4
2019-Jul-14 21:58N 49°57' W 002°15'9 9.4
2019-Jul-14 20:59N 49°54' W 002°28'10 9.6
2019-Jul-14 19:59N 49°51' W 002°43'510.1
2019-Jul-14 19:30N 49°50' W 002°50'510.0
2019-Jul-14 19:00N 49°50' W 002°58'510.0
2019-Jul-14 18:30N 49°50' W 003°06'510.0
2019-Jul-14 18:00N 49°50' W 003°13'5 9.9
2019-Jul-14 17:30N 49°50' W 003°21'5 9.9
2019-Jul-14 17:00N 49°50' W 003°29'5 9.7
2019-Jul-14 16:30N 49°50' W 003°36'5 9.7
2019-Jul-14 16:00N 49°50' W 003°44'5 9.8
2019-Jul-14 15:30N 49°50' W 003°51'5 9.8
2019-Jul-14 15:00N 49°50' W 003°59'5 9.6
2019-Jul-14 14:30N 49°50' W 004°06'510.1
2019-Jul-14 14:00N 49°50' W 004°14'169 8.0
2019-Jul-13 16:53N 52°05' W 006°57'4 2.6
2019-Jul-13 15:15N 52°09' W 006°59'0 0.0
2019-Jul-13 14:41N 52°09' W 006°59'0 0.0
2019-Jul-13 14:30N 52°09' W 006°59'0 0.0
2019-Jul-13 10:55N 52°09' W 006°59'0 0.0
2019-Jul-13 08:52N 52°09' W 006°59'0 0.0
2019-Jul-13 06:20N 52°09' W 006°59'1 2.0
2019-Jul-13 05:55N 52°08' W 006°58'10 8.9
2019-Jul-13 04:44N 52°03' W 006°44'7 8.5
2019-Jul-13 03:54N 52°03' W 006°32'4 9.1
2019-Jul-13 03:30N 52°04' W 006°26'5 9.2
2019-Jul-13 02:58N 52°06' W 006°19'4 8.9
2019-Jul-13 02:30N 52°08' W 006°13'5 9.2
2019-Jul-13 02:00N 52°11' W 006°08'4 8.5
2019-Jul-13 01:30N 52°15' W 006°05'4 8.6
2019-Jul-13 01:00N 52°19' W 006°03'4 8.5
2019-Jul-13 00:31N 52°23' W 006°02'5 9.3
2019-Jul-13 00:00N 52°28' W 006°00'25 9.5
2019-Jul-12 21:24N 52°52' W 005°51'6 9.2
2019-Jul-12 20:48N 52°57' W 005°54'3 9.7
2019-Jul-12 20:28N 53°00' W 005°55'4 9.5
2019-Jul-12 20:00N 53°04' W 005°57'6 9.5
2019-Jul-12 19:24N 53°10' W 005°59'12 8.9
2019-Jul-12 18:06N 53°20' W 006°07'110.0
2019-Jul-12 18:00N 53°21' W 006°09'2 4.6
2019-Jul-12 17:30N 53°21' W 006°13'1 0.8
2019-Jul-12 16:51N 53°21' W 006°14'0 0.0
2019-Jul-12 16:18N 53°21' W 006°14'0 0.0
2019-Jul-12 16:00N 53°21' W 006°14'0 0.0
2019-Jul-12 15:30N 53°21' W 006°14'0 0.0
2019-Jul-12 15:00N 53°21' W 006°14'0 0.0
2019-Jul-12 14:23N 53°21' W 006°14'0 0.0
2019-Jul-12 13:42N 53°21' W 006°14'0 0.0
2019-Jul-12 13:30N 53°21' W 006°14'0 0.0
2019-Jul-12 13:00N 53°21' W 006°14'0 0.0
2019-Jul-12 12:27N 53°21' W 006°14'0 0.0
2019-Jul-12 12:00N 53°21' W 006°14'0 0.0
2019-Jul-12 11:30N 53°21' W 006°14'0 0.0
2019-Jul-12 11:00N 53°21' W 006°14'0 0.0
2019-Jul-12 10:30N 53°21' W 006°14'0 0.0
2019-Jul-12 10:00N 53°21' W 006°14'0 0.0
2019-Jul-12 09:30N 53°21' W 006°14'0 0.0
2019-Jul-12 09:00N 53°21' W 006°14'0 0.0
2019-Jul-12 08:30N 53°21' W 006°14'0 0.0
2019-Jul-12 08:00N 53°21' W 006°14'0 0.0
2019-Jul-12 07:30N 53°21' W 006°14'0 0.0
2019-Jul-12 06:54N 53°21' W 006°14'0 0.0
2019-Jul-12 06:30N 53°21' W 006°14'1 2.3
2019-Jul-12 06:00N 53°21' W 006°12'510.2
2019-Jul-12 05:30N 53°21' W 006°03'5 9.1
2019-Jul-12 05:00N 53°24' W 005°58'51 9.8
2019-Jul-11 23:49N 54°10' W 005°22'4 9.1
2019-Jul-11 23:20N 54°14' W 005°20'5 8.4
2019-Jul-11 22:42N 54°19' W 005°17'3 8.2
2019-Jul-11 22:23N 54°22' W 005°16'4 7.9
2019-Jul-11 21:51N 54°26' W 005°16'3 7.7
2019-Jul-11 21:25N 54°29' W 005°17'4 7.5
2019-Jul-11 20:50N 54°33' W 005°19'3 7.5
2019-Jul-11 20:28N 54°36' W 005°21'4 7.8
2019-Jul-11 19:59N 54°40' W 005°23'4 7.8
2019-Jul-11 19:30N 54°42' W 005°27'4 7.5
2019-Jul-11 19:00N 54°43' W 005°33'510.4
2019-Jul-11 18:30N 54°42' W 005°42'510.3
2019-Jul-11 18:01N 54°40' W 005°50'3 5.6
2019-Jul-11 17:26N 54°37' W 005°54'1 1.2
2019-Jul-11 16:58N 54°37' W 005°54'0 0.0
2019-Jul-11 16:29N 54°37' W 005°54'0 0.0
2019-Jul-11 15:58N 54°37' W 005°54'0 0.0
2019-Jul-11 15:29N 54°37' W 005°54'0 0.0
2019-Jul-11 14:59N 54°37' W 005°54'0 0.0
2019-Jul-11 14:28N 54°37' W 005°54'0 0.0
2019-Jul-11 13:58N 54°37' W 005°54'0 0.0
2019-Jul-11 13:28N 54°37' W 005°54'0 0.0
2019-Jul-11 12:58N 54°37' W 005°54'0 0.0
2019-Jul-11 12:29N 54°37' W 005°54'0 0.0
2019-Jul-11 11:59N 54°37' W 005°54'0 0.0
2019-Jul-11 11:29N 54°37' W 005°54'0 0.0
2019-Jul-11 10:59N 54°37' W 005°54'0 0.0
2019-Jul-11 10:21N 54°37' W 005°54'0 0.0
2019-Jul-11 09:59N 54°37' W 005°54'0 0.0
2019-Jul-11 09:25N 54°37' W 005°54'0 0.0
2019-Jul-11 08:58N 54°37' W 005°54'0 0.0
2019-Jul-11 08:30N 54°37' W 005°54'0 0.0
2019-Jul-11 08:00N 54°37' W 005°54'0 0.0
2019-Jul-11 07:30N 54°37' W 005°54'0 0.0
2019-Jul-11 07:00N 54°37' W 005°54'0 0.0
2019-Jul-11 06:30N 54°37' W 005°54'0 0.0
2019-Jul-11 06:00N 54°37' W 005°54'0 0.0
2019-Jul-11 05:30N 54°37' W 005°54'0 0.0
2019-Jul-11 05:00N 54°37' W 005°54'0 0.0
2019-Jul-11 04:30N 54°37' W 005°54'0 0.0
2019-Jul-11 04:00N 54°37' W 005°54'0 0.0
2019-Jul-11 03:30N 54°37' W 005°54'0 0.0
2019-Jul-11 03:00N 54°37' W 005°54'0 0.0
2019-Jul-11 02:30N 54°37' W 005°54'0 0.0
2019-Jul-11 02:00N 54°37' W 005°54'0 0.0
2019-Jul-11 01:30N 54°37' W 005°54'0 0.0
2019-Jul-11 01:00N 54°37' W 005°54'0 0.0
2019-Jul-11 00:30N 54°37' W 005°54'0 0.0
2019-Jul-11 00:00N 54°37' W 005°54'0 0.0
2019-Jul-10 23:30N 54°37' W 005°54'0 0.0
2019-Jul-10 22:59N 54°37' W 005°54'0 0.0
2019-Jul-10 22:29N 54°37' W 005°54'0 0.0
2019-Jul-10 21:58N 54°37' W 005°54'0 0.0
2019-Jul-10 21:30N 54°37' W 005°54'0 0.0
2019-Jul-10 20:59N 54°37' W 005°54'0 0.0
2019-Jul-10 20:28N 54°37' W 005°54'0 0.0
2019-Jul-10 20:00N 54°37' W 005°54'0 0.0
2019-Jul-10 19:31N 54°37' W 005°54'0 0.0
2019-Jul-10 19:00N 54°37' W 005°54'0 0.0
2019-Jul-10 18:28N 54°37' W 005°54'0 0.0
2019-Jul-10 18:00N 54°37' W 005°54'0 0.0
2019-Jul-10 17:30N 54°37' W 005°54'0 0.0
2019-Jul-10 16:59N 54°37' W 005°54'0 0.0
2019-Jul-10 16:28N 54°37' W 005°54'0 0.0
2019-Jul-10 16:00N 54°37' W 005°54'0 0.0
2019-Jul-10 15:30N 54°37' W 005°54'0 0.0
2019-Jul-10 14:56N 54°37' W 005°54'0 0.0
2019-Jul-10 14:29N 54°37' W 005°54'0 0.0
2019-Jul-10 13:59N 54°37' W 005°54'0 0.0
2019-Jul-10 13:29N 54°37' W 005°54'0 0.0
2019-Jul-10 12:56N 54°37' W 005°54'0 0.0
2019-Jul-10 12:27N 54°37' W 005°54'0 0.0
2019-Jul-10 11:58N 54°37' W 005°54'0 0.0
2019-Jul-10 11:28N 54°37' W 005°54'0 0.0
2019-Jul-10 10:58N 54°37' W 005°54'0 0.0
2019-Jul-10 10:28N 54°37' W 005°54'0 0.0
2019-Jul-10 09:58N 54°37' W 005°54'0 0.0
2019-Jul-10 09:28N 54°37' W 005°54'0 0.0
2019-Jul-10 08:58N 54°37' W 005°54'0 0.0
2019-Jul-10 08:28N 54°37' W 005°54'0 0.0
2019-Jul-10 07:58N 54°37' W 005°54'0 0.0
2019-Jul-10 07:28N 54°37' W 005°54'0 0.0
2019-Jul-10 07:00N 54°37' W 005°54'0 0.5
2019-Jul-10 06:29N 54°37' W 005°54'4 7.8
2019-Jul-10 05:59N 54°40' W 005°50'5 9.9
2019-Jul-10 05:30N 54°43' W 005°43'1 2.7
2019-Jul-10 05:00N 54°43' W 005°41'2 4.8
2019-Jul-10 04:30N 54°45' W 005°38'3 5.1
2019-Jul-10 03:58N 54°47' W 005°34'2 5.2
2019-Jul-10 03:30N 54°49' W 005°33'16 7.1
2019-Jul-10 01:16N 55°04' W 005°21'5 5.4
2019-Jul-10 00:17N 55°08' W 005°17'413.3
2019-Jul-10 00:00N 55°06' W 005°12'32 5.3 140 / 131014.2 2.2 15.0 14.0
2019-Jul-09 18:00N 55°36' W 004°54'9 8.6 210 / 91014.210.8 14.5 14.7
2019-Jul-09 16:59N 55°44' W 004°59'4 9.2
2019-Jul-09 16:30N 55°48' W 004°58'4 8.1
2019-Jul-09 16:00N 55°51' W 005°03'0 0.1
2019-Jul-09 15:10N 55°51' W 005°03'0 0.1
2019-Jul-09 15:00N 55°51' W 005°03'0 0.0
2019-Jul-09 14:26N 55°51' W 005°03'0 0.0
2019-Jul-09 13:51N 55°51' W 005°03'0 0.0
2019-Jul-09 13:28N 55°51' W 005°03'0 0.0
2019-Jul-09 12:58N 55°51' W 005°03'0 0.0
2019-Jul-09 12:25N 55°51' W 005°03'4 8.5
2019-Jul-09 12:00N 55°48' W 005°00'445.1 230 / 121014.210.8 15.5 12.0
2019-Jul-09 11:55N 55°51' W 005°03'0 0.0
2019-Jul-09 11:22N 55°51' W 005°03'0 0.0
2019-Jul-09 10:49N 55°51' W 005°03'0 0.0
2019-Jul-09 10:26N 55°51' W 005°03'0 0.0
2019-Jul-09 09:39N 55°51' W 005°03'0 0.0
2019-Jul-09 09:07N 55°51' W 005°03'0 0.0
2019-Jul-09 07:58N 55°51' W 005°03'0 0.0
2019-Jul-09 07:26N 55°51' W 005°03'0 0.0
2019-Jul-09 07:00N 55°51' W 005°03'4 7.7
2019-Jul-09 06:30N 55°49' W 004°57'612.1
2019-Jul-09 06:00N 55°43' W 004°59'4 7.2
2019-Jul-09 05:30N 55°39' W 004°60'  
Track history (hours):
 
Tides and Currents Weather Stations Pressure Air Temp Water Temp Dewpoint Dewpoint Depression Visibility Wind Speed Wind Dir Waves Ship Positions

Seabourn Quest

Last reported at 2019-Jul-19 02:24 UTC. Time now 2019-Jul-19 18:41 UTC.
Position N 51°33' W 005°51'.

Length 198 m; draft 6.7 m.

Type: Ship. MMSI: 311038900.

Date/timePositionNaut miles runAvg speedWind from/ knotsBaromVisibWave heightAir tempDewpointWater temp
2019-Jul-19 02:24N 51°33' W 005°51'614.6
2019-Jul-19 02:00N 51°28' W 005°51'2813.8
2019-Jul-19 00:00N 51°00' W 005°48'77 3.6 190 / 171008.110.8 18.010.6
2019-Jul-18 02:27N 50°02' W 004°30'3 7.0
2019-Jul-18 01:59N 50°01' W 004°25'5 7.3
2019-Jul-18 01:18N 50°01' W 004°17'3 7.3
2019-Jul-18 00:55N 50°01' W 004°13'6 8.0
2019-Jul-18 00:08N 50°01' W 004°03'1 8.3
2019-Jul-18 00:00N 50°01' W 004°02'5423.4
2019-Jul-18 00:00N 50°00' W 003°54'1 2.6 190 / 251012.210.8 16.0 8.1
2019-Jul-17 23:30N 50°01' W 003°55'4 7.8
2019-Jul-17 23:00N 50°01' W 003°49'4 7.4
2019-Jul-17 22:30N 50°01' W 003°43'4 7.2
2019-Jul-17 22:01N 50°01' W 003°38'3 6.8
2019-Jul-17 21:30N 50°01' W 003°33'3 6.5
2019-Jul-17 21:01N 50°01' W 003°28'3 5.9
2019-Jul-17 20:30N 50°01' W 003°23'3 5.7
2019-Jul-17 20:01N 50°01' W 003°19'3 5.6
2019-Jul-17 19:31N 50°01' W 003°14'3 5.4
2019-Jul-17 19:00N 50°01' W 003°10'3 5.7
2019-Jul-17 18:31N 50°01' W 003°06'3 6.0
2019-Jul-17 18:01N 50°01' W 003°01'3 6.2
2019-Jul-17 17:31N 50°01' W 002°56'3 6.7
2019-Jul-17 17:01N 50°02' W 002°51'4 7.4
2019-Jul-17 16:30N 50°03' W 002°45'4 8.0
2019-Jul-17 16:00N 50°04' W 002°39'4 8.7
2019-Jul-17 15:31N 50°05' W 002°33'5 9.4
2019-Jul-17 14:59N 50°06' W 002°26'710.6
2019-Jul-17 14:18N 50°08' W 002°15'311.0
2019-Jul-17 14:00N 50°09' W 002°10'611.1
2019-Jul-17 13:30N 50°10' W 002°01'510.6
2019-Jul-17 13:00N 50°12' W 001°53'510.1
2019-Jul-17 12:30N 50°13' W 001°46'5 9.3
2019-Jul-17 12:00N 50°14' W 001°39'4 8.5
2019-Jul-17 11:30N 50°16' W 001°32'4 7.7
2019-Jul-17 11:00N 50°17' W 001°27'4 6.9
2019-Jul-17 10:29N 50°17' W 001°21'3 6.2
2019-Jul-17 09:59N 50°18' W 001°16'3 5.5
2019-Jul-17 09:30N 50°19' W 001°12'2 5.0
2019-Jul-17 09:00N 50°20' W 001°09'2 4.6
2019-Jul-17 08:30N 50°20' W 001°05'2 4.6
2019-Jul-17 08:00N 50°21' W 001°02'2 4.8
2019-Jul-17 07:30N 50°21' W 000°58'3 5.8
2019-Jul-17 06:59N 50°22' W 000°54'3 6.7
2019-Jul-17 06:30N 50°23' W 000°49'4 7.1
2019-Jul-17 06:00N 50°24' W 000°43'4 7.0
2019-Jul-17 05:28N 50°25' W 000°38'3 7.0
2019-Jul-17 05:00N 50°26' W 000°33'4 7.1
2019-Jul-17 04:30N 50°27' W 000°27'3 7.0
2019-Jul-17 04:01N 50°28' W 000°22'4 7.6
2019-Jul-17 03:30N 50°29' W 000°16'5 8.1
2019-Jul-17 02:57N 50°30' W 000°09'5 7.8
2019-Jul-17 02:19N 50°31' W 000°02'2 7.6
2019-Jul-17 01:59N 50°32' E 000°02'11 7.3
2019-Jul-17 00:31N 50°35' E 000°18'0 7.2
2019-Jul-17 00:30N 50°35' E 000°18'1 1.7
2019-Jul-17 00:00N 50°36' E 000°18'445.2 350 / 41016.210.8 16.0 2.8
2019-Jul-16 23:54N 50°36' E 000°25'3 7.4
2019-Jul-16 23:29N 50°37' E 000°29'4 7.2
2019-Jul-16 22:59N 50°38' E 000°35'3 6.9
2019-Jul-16 22:31N 50°40' E 000°39'4 7.1
2019-Jul-16 22:00N 50°42' E 000°44'3 6.8
2019-Jul-16 21:30N 50°44' E 000°48'4 7.1
2019-Jul-16 21:00N 50°46' E 000°53'4 7.1
2019-Jul-16 20:30N 50°48' E 000°57'5 7.1
2019-Jul-16 19:49N 50°51' E 001°03'2 7.2
2019-Jul-16 19:30N 50°53' E 001°06'4 7.3
2019-Jul-16 19:00N 50°55' E 001°10'5 9.0
2019-Jul-16 18:30N 50°58' E 001°15'6 9.8
2019-Jul-16 17:55N 51°03' E 001°21'4 9.2
2019-Jul-16 17:29N 51°07' E 001°23'2 3.7
2019-Jul-16 16:59N 51°08' E 001°24'3 6.2
2019-Jul-16 16:28N 51°07' E 001°19'0 0.0
2019-Jul-16 04:13N 51°07' E 001°19'0 1.0
2019-Jul-16 04:00N 51°07' E 001°20'4 7.8
2019-Jul-16 03:30N 51°07' E 001°26'611.5
2019-Jul-16 03:00N 51°04' E 001°34'510.5
2019-Jul-16 02:30N 50°59' E 001°32'712.1
2019-Jul-16 01:55N 50°53' E 001°25'812.7
2019-Jul-16 01:16N 50°46' E 001°21'312.8
2019-Jul-16 01:00N 50°42' E 001°19'612.8
2019-Jul-16 00:30N 50°38' E 001°12'712.9
2019-Jul-15 23:59N 50°34' E 001°04'713.1
2019-Jul-15 23:28N 50°30' E 000°55'913.5
2019-Jul-15 22:48N 50°28' E 000°42'5512.2
2019-Jul-15 18:18N 50°34' W 000°44'413.6
2019-Jul-15 18:00N 50°36' W 000°49'713.9
2019-Jul-15 17:31N 50°40' W 000°58'4 9.0
2019-Jul-15 17:01N 50°44' W 001°02'714.1
2019-Jul-15 16:30N 50°46' W 001°13'2 4.4
2019-Jul-15 15:59N 50°47' W 001°16'0 0.3
2019-Jul-15 15:47N 50°47' W 001°16'0 0.4
2019-Jul-15 15:35N 50°47' W 001°16'0 0.6
2019-Jul-15 15:30N 50°47' W 001°16'010.6
2019-Jul-15 15:30N 50°47' W 001°16'032.5
2019-Jul-15 15:30N 50°47' W 001°16'1 2.4
2019-Jul-15 15:00N 50°46' W 001°18'130.2
2019-Jul-15 14:58N 50°47' W 001°16'1 7.0
2019-Jul-15 14:46N 50°46' W 001°18'1 4.9
2019-Jul-15 14:30N 50°47' W 001°16'1128.5
2019-Jul-15 14:30N 50°47' W 001°17'122.8
2019-Jul-15 14:28N 50°47' W 001°16'0 0.0
2019-Jul-15 13:59N 50°47' W 001°16'168.2
2019-Jul-15 13:58N 50°46' W 001°18'0 1.0
2019-Jul-15 13:51N 50°46' W 001°18'1 3.2
2019-Jul-15 13:30N 50°47' W 001°16'052.0
2019-Jul-15 13:30N 50°47' W 001°16'1 8.0
2019-Jul-15 13:20N 50°46' W 001°18'1 3.9
2019-Jul-15 12:59N 50°47' W 001°16'1338.4
2019-Jul-15 12:59N 50°46' W 001°18'1110.5
2019-Jul-15 12:58N 50°47' W 001°16'0 0.1
2019-Jul-15 12:29N 50°47' W 001°16'121.0
2019-Jul-15 12:25N 50°46' W 001°18'0 1.2
2019-Jul-15 12:02N 50°46' W 001°18'134.2
2019-Jul-15 12:00N 50°47' W 001°16'1195.0
2019-Jul-15 12:00N 50°47' W 001°17'136.5
2019-Jul-15 11:59N 50°47' W 001°16'0 0.0
2019-Jul-15 11:29N 50°47' W 001°16'126.5
2019-Jul-15 11:26N 50°46' W 001°18'1 2.4
2019-Jul-15 10:59N 50°47' W 001°16'0 0.0
2019-Jul-15 10:29N 50°47' W 001°16'0 0.9
2019-Jul-15 10:21N 50°47' W 001°16'0 2.2
2019-Jul-15 10:21N 50°47' W 001°16'0 1.1
2019-Jul-15 10:04N 50°47' W 001°17'0 5.2
2019-Jul-15 10:00N 50°46' W 001°17'120.8
2019-Jul-15 09:58N 50°47' W 001°16'1 2.9
2019-Jul-15 09:30N 50°46' W 001°18'139.3
2019-Jul-15 09:28N 50°47' W 001°16'0 0.6
2019-Jul-15 09:00N 50°47' W 001°16'642861.0
2019-Jul-15 08:59N 49°56' W 002°18'64132.1
2019-Jul-15 08:30N 50°47' W 001°17'116.2
2019-Jul-15 08:28N 50°47' W 001°16'1 5.8
2019-Jul-15 08:15N 50°46' W 001°18'012.8
2019-Jul-15 08:12N 50°47' W 001°17'1 3.7
2019-Jul-15 07:59N 50°47' W 001°16'0 4.5
2019-Jul-15 07:58N 50°47' W 001°16'217.9
2019-Jul-15 07:53N 50°46' W 001°18'2 3.9
2019-Jul-15 07:30N 50°47' W 001°16'0 2.4
2019-Jul-15 07:20N 50°47' W 001°16'0 1.0
2019-Jul-15 06:59N 50°47' W 001°16'120.6
2019-Jul-15 06:55N 50°46' W 001°18'1 2.8
2019-Jul-15 06:31N 50°47' W 001°16'4 7.3
2019-Jul-15 06:01N 50°46' W 001°10'713.3
2019-Jul-15 05:30N 50°43' W 001°01'4 8.0
2019-Jul-15 05:01N 50°39' W 000°58'4 8.1
2019-Jul-15 04:31N 50°35' W 000°59'5 9.1
2019-Jul-15 04:00N 50°32' W 001°03'49 9.6
2019-Jul-14 22:51N 50°00' W 002°03'5 9.8
2019-Jul-14 22:22N 49°58' W 002°09'4 9.4
2019-Jul-14 21:58N 49°57' W 002°15'9 9.4
2019-Jul-14 20:59N 49°54' W 002°28'10 9.6
2019-Jul-14 19:59N 49°51' W 002°43'510.1
2019-Jul-14 19:30N 49°50' W 002°50'510.0
2019-Jul-14 19:00N 49°50' W 002°58'510.0
2019-Jul-14 18:30N 49°50' W 003°06'510.0
2019-Jul-14 18:00N 49°50' W 003°13'5 9.9
2019-Jul-14 17:30N 49°50' W 003°21'5 9.9
2019-Jul-14 17:00N 49°50' W 003°29'5 9.7
2019-Jul-14 16:30N 49°50' W 003°36'5 9.7
2019-Jul-14 16:00N 49°50' W 003°44'5 9.8
2019-Jul-14 15:30N 49°50' W 003°51'5 9.8
2019-Jul-14 15:00N 49°50' W 003°59'5 9.6
2019-Jul-14 14:30N 49°50' W 004°06'510.1
2019-Jul-14 14:00N 49°50' W 004°14'169 8.0
2019-Jul-13 16:53N 52°05' W 006°57'4 2.6
2019-Jul-13 15:15N 52°09' W 006°59'0 0.0
2019-Jul-13 14:41N 52°09' W 006°59'0 0.0
2019-Jul-13 14:30N 52°09' W 006°59'0 0.0
2019-Jul-13 10:55N 52°09' W 006°59'0 0.0
2019-Jul-13 08:52N 52°09' W 006°59'0 0.0
2019-Jul-13 06:20N 52°09' W 006°59'1 2.0
2019-Jul-13 05:55N 52°08' W 006°58'10 8.9
2019-Jul-13 04:44N 52°03' W 006°44'7 8.5
2019-Jul-13 03:54N 52°03' W 006°32'4 9.1
2019-Jul-13 03:30N 52°04' W 006°26'5 9.2
2019-Jul-13 02:58N 52°06' W 006°19'4 8.9
2019-Jul-13 02:30N 52°08' W 006°13'5 9.2
2019-Jul-13 02:00N 52°11' W 006°08'4 8.5
2019-Jul-13 01:30N 52°15' W 006°05'4 8.6
2019-Jul-13 01:00N 52°19' W 006°03'4 8.5
2019-Jul-13 00:31N 52°23' W 006°02'5 9.3
2019-Jul-13 00:00N 52°28' W 006°00'25 9.5
2019-Jul-12 21:24N 52°52' W 005°51'6 9.2
2019-Jul-12 20:48N 52°57' W 005°54'3 9.7
2019-Jul-12 20:28N 53°00' W 005°55'4 9.5
2019-Jul-12 20:00N 53°04' W 005°57'6 9.5
2019-Jul-12 19:24N 53°10' W 005°59'12 8.9
2019-Jul-12 18:06N 53°20' W 006°07'110.0
2019-Jul-12 18:00N 53°21' W 006°09'2 4.6
2019-Jul-12 17:30N 53°21' W 006°13'1 0.8
2019-Jul-12 16:51N 53°21' W 006°14'0 0.0
2019-Jul-12 16:18N 53°21' W 006°14'0 0.0
2019-Jul-12 16:00N 53°21' W 006°14'0 0.0
2019-Jul-12 15:30N 53°21' W 006°14'0 0.0
2019-Jul-12 15:00N 53°21' W 006°14'0 0.0
2019-Jul-12 14:23N 53°21' W 006°14'0 0.0
2019-Jul-12 13:42N 53°21' W 006°14'0 0.0
2019-Jul-12 13:30N 53°21' W 006°14'0 0.0
2019-Jul-12 13:00N 53°21' W 006°14'0 0.0
2019-Jul-12 12:27N 53°21' W 006°14'0 0.0
2019-Jul-12 12:00N 53°21' W 006°14'0 0.0
2019-Jul-12 11:30N 53°21' W 006°14'0 0.0
2019-Jul-12 11:00N 53°21' W 006°14'0 0.0
2019-Jul-12 10:30N 53°21' W 006°14'0 0.0
2019-Jul-12 10:00N 53°21' W 006°14'0 0.0
2019-Jul-12 09:30N 53°21' W 006°14'0 0.0
2019-Jul-12 09:00N 53°21' W 006°14'0 0.0
2019-Jul-12 08:30N 53°21' W 006°14'0 0.0
2019-Jul-12 08:00N 53°21' W 006°14'0 0.0
2019-Jul-12 07:30N 53°21' W 006°14'0 0.0
2019-Jul-12 06:54N 53°21' W 006°14'0 0.0
2019-Jul-12 06:30N 53°21' W 006°14'1 2.3
2019-Jul-12 06:00N 53°21' W 006°12'510.2
2019-Jul-12 05:30N 53°21' W 006°03'5 9.1
2019-Jul-12 05:00N 53°24' W 005°58'51 9.8
2019-Jul-11 23:49N 54°10' W 005°22'4 9.1
2019-Jul-11 23:20N 54°14' W 005°20'5 8.4
2019-Jul-11 22:42N 54°19' W 005°17'3 8.2
2019-Jul-11 22:23N 54°22' W 005°16'4 7.9
2019-Jul-11 21:51N 54°26' W 005°16'3 7.7
2019-Jul-11 21:25N 54°29' W 005°17'4 7.5
2019-Jul-11 20:50N 54°33' W 005°19'3 7.5
2019-Jul-11 20:28N 54°36' W 005°21'4 7.8
2019-Jul-11 19:59N 54°40' W 005°23'4 7.8
2019-Jul-11 19:30N 54°42' W 005°27'4 7.5
2019-Jul-11 19:00N 54°43' W 005°33'510.4
2019-Jul-11 18:30N 54°42' W 005°42'510.3
2019-Jul-11 18:01N 54°40' W 005°50'3 5.6
2019-Jul-11 17:26N 54°37' W 005°54'1 1.2
2019-Jul-11 16:58N 54°37' W 005°54'0 0.0
2019-Jul-11 16:29N 54°37' W 005°54'0 0.0
2019-Jul-11 15:58N 54°37' W 005°54'0 0.0
2019-Jul-11 15:29N 54°37' W 005°54'0 0.0
2019-Jul-11 14:59N 54°37' W 005°54'0 0.0
2019-Jul-11 14:28N 54°37' W 005°54'0 0.0
2019-Jul-11 13:58N 54°37' W 005°54'0 0.0
2019-Jul-11 13:28N 54°37' W 005°54'0 0.0
2019-Jul-11 12:58N 54°37' W 005°54'0 0.0
2019-Jul-11 12:29N 54°37' W 005°54'0 0.0
2019-Jul-11 11:59N 54°37' W 005°54'0 0.0
2019-Jul-11 11:29N 54°37' W 005°54'0 0.0
2019-Jul-11 10:59N 54°37' W 005°54'0 0.0
2019-Jul-11 10:21N 54°37' W 005°54'0 0.0
2019-Jul-11 09:59N 54°37' W 005°54'0 0.0
2019-Jul-11 09:25N 54°37' W 005°54'0 0.0
2019-Jul-11 08:58N 54°37' W 005°54'0 0.0
2019-Jul-11 08:30N 54°37' W 005°54'0 0.0
2019-Jul-11 08:00N 54°37' W 005°54'0 0.0
2019-Jul-11 07:30N 54°37' W 005°54'0 0.0
2019-Jul-11 07:00N 54°37' W 005°54'0 0.0
2019-Jul-11 06:30N 54°37' W 005°54'0 0.0
2019-Jul-11 06:00N 54°37' W 005°54'0 0.0
2019-Jul-11 05:30N 54°37' W 005°54'0 0.0
2019-Jul-11 05:00N 54°37' W 005°54'0 0.0
2019-Jul-11 04:30N 54°37' W 005°54'0 0.0
2019-Jul-11 04:00N 54°37' W 005°54'0 0.0
2019-Jul-11 03:30N 54°37' W 005°54'0 0.0
2019-Jul-11 03:00N 54°37' W 005°54'0 0.0
2019-Jul-11 02:30N 54°37' W 005°54'0 0.0
2019-Jul-11 02:00N 54°37' W 005°54'0 0.0
2019-Jul-11 01:30N 54°37' W 005°54'0 0.0
2019-Jul-11 01:00N 54°37' W 005°54'0 0.0
2019-Jul-11 00:30N 54°37' W 005°54'0 0.0
2019-Jul-11 00:00N 54°37' W 005°54'0 0.0
2019-Jul-10 23:30N 54°37' W 005°54'0 0.0
2019-Jul-10 22:59N 54°37' W 005°54'0 0.0
2019-Jul-10 22:29N 54°37' W 005°54'0 0.0
2019-Jul-10 21:58N 54°37' W 005°54'0 0.0
2019-Jul-10 21:30N 54°37' W 005°54'0 0.0
2019-Jul-10 20:59N 54°37' W 005°54'0 0.0
2019-Jul-10 20:28N 54°37' W 005°54'0 0.0
2019-Jul-10 20:00N 54°37' W 005°54'0 0.0
2019-Jul-10 19:31N 54°37' W 005°54'0 0.0
2019-Jul-10 19:00N 54°37' W 005°54'0 0.0
2019-Jul-10 18:28N 54°37' W 005°54'0 0.0
2019-Jul-10 18:00N 54°37' W 005°54'0 0.0
2019-Jul-10 17:30N 54°37' W 005°54'0 0.0
2019-Jul-10 16:59N 54°37' W 005°54'0 0.0
2019-Jul-10 16:28N 54°37' W 005°54'0 0.0
2019-Jul-10 16:00N 54°37' W 005°54'0 0.0
2019-Jul-10 15:30N 54°37' W 005°54'0 0.0
2019-Jul-10 14:56N 54°37' W 005°54'0 0.0
2019-Jul-10 14:29N 54°37' W 005°54'0 0.0
2019-Jul-10 13:59N 54°37' W 005°54'0 0.0
2019-Jul-10 13:29N 54°37' W 005°54'0 0.0
2019-Jul-10 12:56N 54°37' W 005°54'0 0.0
2019-Jul-10 12:27N 54°37' W 005°54'0 0.0
2019-Jul-10 11:58N 54°37' W 005°54'0 0.0
2019-Jul-10 11:28N 54°37' W 005°54'0 0.0
2019-Jul-10 10:58N 54°37' W 005°54'0 0.0
2019-Jul-10 10:28N 54°37' W 005°54'0 0.0
2019-Jul-10 09:58N 54°37' W 005°54'0 0.0
2019-Jul-10 09:28N 54°37' W 005°54'0 0.0
2019-Jul-10 08:58N 54°37' W 005°54'0 0.0
2019-Jul-10 08:28N 54°37' W 005°54'0 0.0
2019-Jul-10 07:58N 54°37' W 005°54'0 0.0
2019-Jul-10 07:28N 54°37' W 005°54'0 0.0
2019-Jul-10 07:00N 54°37' W 005°54'0 0.5
2019-Jul-10 06:29N 54°37' W 005°54'4 7.8
2019-Jul-10 05:59N 54°40' W 005°50'5 9.9
2019-Jul-10 05:30N 54°43' W 005°43'1 2.7
2019-Jul-10 05:00N 54°43' W 005°41'2 4.8
2019-Jul-10 04:30N 54°45' W 005°38'3 5.1
2019-Jul-10 03:58N 54°47' W 005°34'2 5.2
2019-Jul-10 03:30N 54°49' W 005°33'16 7.1
2019-Jul-10 01:16N 55°04' W 005°21'5 5.4
2019-Jul-10 00:17N 55°08' W 005°17'413.3
2019-Jul-10 00:00N 55°06' W 005°12'32 5.3 140 / 131014.2 2.2 15.0 14.0
2019-Jul-09 18:00N 55°36' W 004°54'9 8.6 210 / 91014.210.8 14.5 14.7
2019-Jul-09 16:59N 55°44' W 004°59'4 9.2
2019-Jul-09 16:30N 55°48' W 004°58'4 8.1
2019-Jul-09 16:00N 55°51' W 005°03'0 0.1
2019-Jul-09 15:10N 55°51' W 005°03'0 0.1
2019-Jul-09 15:00N 55°51' W 005°03'0 0.0
2019-Jul-09 14:26N 55°51' W 005°03'0 0.0
2019-Jul-09 13:51N 55°51' W 005°03'0 0.0
2019-Jul-09 13:28N 55°51' W 005°03'0 0.0
2019-Jul-09 12:58N 55°51' W 005°03'0 0.0
2019-Jul-09 12:25N 55°51' W 005°03'4 8.5
2019-Jul-09 12:00N 55°48' W 005°00'445.1 230 / 121014.210.8 15.5 12.0
2019-Jul-09 11:55N 55°51' W 005°03'0 0.0
2019-Jul-09 11:22N 55°51' W 005°03'0 0.0
2019-Jul-09 10:49N 55°51' W 005°03'0 0.0
2019-Jul-09 10:26N 55°51' W 005°03'0 0.0
2019-Jul-09 09:39N 55°51' W 005°03'0 0.0
2019-Jul-09 09:07N 55°51' W 005°03'0 0.0
2019-Jul-09 07:58N 55°51' W 005°03'0 0.0
2019-Jul-09 07:26N 55°51' W 005°03'0 0.0
2019-Jul-09 07:00N 55°51' W 005°03'4 7.7
2019-Jul-09 06:30N 55°49' W 004°57'612.1
2019-Jul-09 06:00N 55°43' W 004°59'4 7.2
2019-Jul-09 05:30N 55°39' W 004°60'  

Dump ship's entire track history